Time;durP1;ratioP1;P1;durP2;ratioP2;P2;SDS_P1;SDS_P2;PMS_P1;PMS_P2;Temp;Humidity;BMP_temperature;BMP_pressure;BME280_temperature;BME280_humidity;BME280_pressure;Samples;Min_cycle;Max_cycle;Signal;HPM_P1;HPM_P2
2022/04/26 03:37:35;;;;;;;2.75;1.70;;;;;;;;;;5053044;28;20029;-37
2022/04/26 03:40:01;;;;;;;1.63;1.45;;;;;;;;;;5052746;28;20021;-37
2022/04/26 03:42:26;;;;;;;3.85;1.83;;;;;;;;;;5052744;28;20021;-37
2022/04/26 03:44:51;;;;;;;4.75;2.10;;;;;;;;;;5052633;28;20482;-37
2022/04/26 03:47:17;;;;;;;5.18;2.60;;;;;;;;;;5052583;28;20033;-37
2022/04/26 03:49:43;;;;;;;3.38;2.58;;;;;;;;;;5052834;28;20439;-37
2022/04/26 03:52:08;;;;;;;6.13;2.92;;;;;;;;;;5052672;28;20839;-37
2022/04/26 03:54:34;;;;;;;7.07;2.63;;;;;;;;;;5051663;28;20021;-37
2022/04/26 03:57:00;;;;;;;3.95;2.13;;;;;;;;;;5052653;28;20368;-37
2022/04/26 03:59:25;;;;;;;2.55;1.95;;;;;;;;;;5052285;28;20074;-37
2022/04/26 04:01:51;;;;;;;3.47;2.70;;;;;;;;;;5052565;28;20025;-37
2022/04/26 04:04:16;;;;;;;2.53;2.28;;;;;;;;;;5052243;28;20040;-36
2022/04/26 04:06:41;;;;;;;2.17;1.88;;;;;;;;;;5052409;28;20029;-37
2022/04/26 04:09:07;;;;;;;3.67;2.03;;;;;;;;;;5052005;28;20024;-36
2022/04/26 04:11:33;;;;;;;4.70;3.63;;;;;;;;;;5052242;28;20049;-36
2022/04/26 04:13:58;;;;;;;4.95;3.22;;;;;;;;;;5052225;28;20025;-37
2022/04/26 04:16:24;;;;;;;4.07;2.92;;;;;;;;;;5052123;28;20074;-37
2022/04/26 04:21:34;;;;;;;3.10;2.40;;;;;;;;;;5051934;28;20468;-37
2022/04/26 04:23:59;;;;;;;4.15;2.92;;;;;;;;;;5051945;28;20020;-37
2022/04/26 04:26:25;;;;;;;4.45;2.65;;;;;;;;;;5051840;28;20460;-37
2022/04/26 04:28:51;;;;;;;3.72;2.75;;;;;;;;;;5051759;28;20032;-37
2022/04/26 04:31:16;;;;;;;3.78;2.90;;;;;;;;;;5052079;28;20047;-37
2022/04/26 04:33:43;;;;;;;4.22;2.58;;;;;;;;;;5051796;28;20102;-37
2022/04/26 04:36:09;;;;;;;4.38;2.35;;;;;;;;;;5051683;28;20502;-37
2022/04/26 04:38:34;;;;;;;4.00;2.28;;;;;;;;;;5051620;28;20021;-37
2022/04/26 04:40:59;;;;;;;3.15;2.40;;;;;;;;;;5051666;28;20076;-37
2022/04/26 04:43:25;;;;;;;2.65;2.00;;;;;;;;;;5051837;28;20017;-37
2022/04/26 04:45:50;;;;;;;5.05;2.75;;;;;;;;;;5051570;28;20120;-37
2022/04/26 04:48:16;;;;;;;4.75;2.42;;;;;;;;;;5051658;28;20490;-37
2022/04/26 04:50:41;;;;;;;3.80;2.17;;;;;;;;;;5051725;28;20029;-37
2022/04/26 04:53:07;;;;;;;3.30;2.28;;;;;;;;;;5051354;28;20021;-37
2022/04/26 04:55:32;;;;;;;4.03;2.30;;;;;;;;;;5051755;28;20402;-37
2022/04/26 04:57:58;;;;;;;4.43;2.40;;;;;;;;;;5051491;28;20056;-37
2022/04/26 05:00:23;;;;;;;5.00;2.42;;;;;;;;;;5051579;28;20025;-37
2022/04/26 05:02:49;;;;;;;2.42;2.05;;;;;;;;;;5051375;28;20418;-37
2022/04/26 05:05:14;;;;;;;3.38;2.35;;;;;;;;;;5050798;28;20511;-37
2022/04/26 05:07:40;;;;;;;3.30;2.35;;;;;;;;;;5049927;28;20051;-37
2022/04/26 05:10:06;;;;;;;3.35;2.35;;;;;;;;;;5051507;28;20387;-37
2022/04/26 05:12:32;;;;;;;3.60;1.73;;;;;;;;;;5049877;28;20124;-37
2022/04/26 05:15:00;;;;;;;2.60;2.10;;;;;;;;;;5051240;28;20037;-37
2022/04/26 05:17:28;;;;;;;2.25;2.05;;;;;;;;;;5051033;28;20071;-37
2022/04/26 05:19:55;;;;;;;4.03;2.05;;;;;;;;;;5051410;28;20657;-37
2022/04/26 05:22:22;;;;;;;3.70;2.67;;;;;;;;;;5051076;28;20036;-38
2022/04/26 05:24:53;;;;;;;2.20;1.73;;;;;;;;;;5051109;28;20039;-37
2022/04/26 05:27:26;;;;;;;3.28;2.03;;;;;;;;;;5050913;28;20040;-37
2022/04/26 05:29:52;;;;;;;2.00;1.80;;;;;;;;;;5051422;28;20082;-37
2022/04/26 05:32:24;;;;;;;2.17;1.98;;;;;;;;;;5051283;28;20033;-37
2022/04/26 05:35:00;;;;;;;3.25;1.60;;;;;;;;;;5051051;28;20033;-37
2022/04/26 05:37:26;;;;;;;11.10;2.08;;;;;;;;;;5050907;28;20068;-37
2022/04/26 05:39:52;;;;;;;3.13;2.28;;;;;;;;;;5050806;28;20017;-37
2022/04/26 05:42:18;;;;;;;3.17;2.20;;;;;;;;;;5050984;28;20604;-37
2022/04/26 05:44:50;;;;;;;3.75;1.92;;;;;;;;;;5051145;28;20111;-37
2022/04/26 05:47:16;;;;;;;3.10;1.92;;;;;;;;;;5049397;28;20120;-37
2022/04/26 05:49:41;;;;;;;2.42;1.65;;;;;;;;;;5050974;28;20416;-37
2022/04/26 05:52:07;;;;;;;3.25;2.03;;;;;;;;;;5050764;28;20025;-37
2022/04/26 05:54:34;;;;;;;3.25;2.05;;;;;;;;;;5051085;28;20028;-37
2022/04/26 05:57:00;;;;;;;2.35;1.90;;;;;;;;;;5050728;28;20041;-37
2022/04/26 05:59:27;;;;;;;1.83;1.42;;;;;;;;;;5050793;28;20519;-36
2022/04/26 06:01:53;;;;;;;2.55;2.05;;;;;;;;;;5050760;28;20441;-37
2022/04/26 06:04:18;;;;;;;2.15;1.95;;;;;;;;;;5032766;28;20021;-37
2022/04/26 06:06:44;;;;;;;2.63;1.95;;;;;;;;;;5049469;28;20021;-37
2022/04/26 06:09:15;;;;;;;3.28;1.88;;;;;;;;;;5049574;28;20033;-37
2022/04/26 06:11:41;;;;;;;3.25;1.80;;;;;;;;;;5050779;28;20056;-37
2022/04/26 06:14:15;;;;;;;3.22;1.55;;;;;;;;;;5050725;28;20073;-37
2022/04/26 06:16:41;;;;;;;3.67;1.95;;;;;;;;;;5051449;28;20068;-37
2022/04/26 06:19:07;;;;;;;3.05;1.90;;;;;;;;;;5054537;28;20035;-37
2022/04/26 06:21:33;;;;;;;2.15;1.88;;;;;;;;;;5054188;28;20029;-37
2022/04/26 06:23:58;;;;;;;1.95;1.80;;;;;;;;;;5054085;28;20028;-37
2022/04/26 06:26:24;;;;;;;2.78;2.13;;;;;;;;;;5054053;28;20040;-36
2022/04/26 06:28:50;;;;;;;11.80;1.80;;;;;;;;;;5054074;28;20504;-37
2022/04/26 06:31:15;;;;;;;2.97;2.00;;;;;;;;;;5054219;28;20159;-37
2022/04/26 06:33:40;;;;;;;2.70;1.88;;;;;;;;;;5054237;28;20406;-37
2022/04/26 06:36:06;;;;;;;3.40;1.60;;;;;;;;;;5053964;28;20029;-37
2022/04/26 06:38:32;;;;;;;4.88;1.80;;;;;;;;;;5053846;28;20033;-37
2022/04/26 06:40:58;;;;;;;1.92;1.40;;;;;;;;;;5052635;28;20480;-37
2022/04/26 06:43:24;;;;;;;2.22;1.40;;;;;;;;;;5053867;28;20025;-37
2022/04/26 06:45:50;;;;;;;2.00;1.80;;;;;;;;;;5035896;28;20039;-37
2022/04/26 06:48:17;;;;;;;2.00;1.77;;;;;;;;;;5053595;28;20108;-37
2022/04/26 06:50:44;;;;;;;2.17;1.80;;;;;;;;;;5053709;28;20028;-37
2022/04/26 06:53:14;;;;;;;9.82;2.53;;;;;;;;;;5053537;28;20490;-37
2022/04/26 06:55:40;;;;;;;2.15;1.60;;;;;;;;;;5052390;28;20040;-37
2022/04/26 06:58:06;;;;;;;3.83;1.63;;;;;;;;;;5053410;28;20021;-37
2022/04/26 07:00:32;;;;;;;1.65;1.50;;;;;;;;;;5053792;28;20040;-37
2022/04/26 07:02:57;;;;;;;4.78;2.08;;;;;;;;;;5053784;28;20025;-37
2022/04/26 07:05:23;;;;;;;1.90;1.80;;;;;;;;;;5053580;28;20067;-37
2022/04/26 07:07:50;;;;;;;3.53;2.33;;;;;;;;;;5053521;28;20064;-37
2022/04/26 07:10:16;;;;;;;3.97;1.70;;;;;;;;;;5053221;28;20063;-37
2022/04/26 07:12:42;;;;;;;4.93;1.67;;;;;;;;;;5052925;28;20585;-37
2022/04/26 07:15:08;;;;;;;2.42;2.15;;;;;;;;;;5053395;28;20029;-37
2022/04/26 07:17:33;;;;;;;1.83;1.70;;;;;;;;;;5053143;28;20017;-36
2022/04/26 07:19:59;;;;;;;4.50;1.40;;;;;;;;;;5053099;28;20025;-37
2022/04/26 07:22:25;;;;;;;3.83;1.73;;;;;;;;;;5053245;28;20013;-37
2022/04/26 07:24:56;;;;;;;3.05;1.85;;;;;;;;;;5051807;28;20068;-37
2022/04/26 07:27:27;;;;;;;9.35;2.25;;;;;;;;;;5052592;28;20041;-37
2022/04/26 07:29:53;;;;;;;6.68;1.90;;;;;;;;;;5052911;28;20663;-37
2022/04/26 07:34:20;;;;;;;2.17;1.42;;;;;;;;;;5052917;28;20050;-37
2022/04/26 07:35:09;;;;;;;2.00;1.45;;;;;;;;;;5053082;28;20033;-37
2022/04/26 07:37:35;;;;;;;5.32;1.90;;;;;;;;;;5052763;28;20068;-37
2022/04/26 07:40:01;;;;;;;1.38;1.27;;;;;;;;;;5052766;28;20515;-37
2022/04/26 07:42:26;;;;;;;2.05;1.60;;;;;;;;;;5052608;28;20108;-37
2022/04/26 07:44:52;;;;;;;10.45;2.25;;;;;;;;;;5052650;28;20074;-37
2022/04/26 07:47:21;;;;;;;4.35;1.70;;;;;;;;;;5052929;28;20048;-36
2022/04/26 07:49:47;;;;;;;2.35;1.40;;;;;;;;;;5052478;28;20025;-37
2022/04/26 07:52:16;;;;;;;7.03;2.10;;;;;;;;;;5052444;28;20020;-36
2022/04/26 07:54:42;;;;;;;2.50;1.80;;;;;;;;;;5052471;28;20021;-37
2022/04/26 07:57:08;;;;;;;2.83;1.80;;;;;;;;;;5052099;28;20031;-36
2022/04/26 07:59:34;;;;;;;8.48;1.90;;;;;;;;;;5052713;28;20131;-37
2022/04/26 08:01:59;;;;;;;1.50;1.40;;;;;;;;;;5052571;28;20044;-36
2022/04/26 08:04:25;;;;;;;1.73;1.52;;;;;;;;;;5052214;28;20662;-37
2022/04/26 08:06:50;;;;;;;2.67;2.13;;;;;;;;;;5052157;28;20032;-36
2022/04/26 08:09:16;;;;;;;2.60;1.73;;;;;;;;;;5052396;28;20119;-37
2022/04/26 08:11:42;;;;;;;8.20;1.85;;;;;;;;;;5051907;28;20376;-36
2022/04/26 08:14:08;;;;;;;4.20;1.92;;;;;;;;;;5052159;28;20086;-36
2022/04/26 08:16:34;;;;;;;7.65;2.53;;;;;;;;;;5051973;28;20021;-37
2022/04/26 08:18:59;;;;;;;15.50;2.58;;;;;;;;;;5052381;28;20538;-37
2022/04/26 08:21:25;;;;;;;4.90;1.55;;;;;;;;;;5051914;28;20383;-36
2022/04/26 08:29:22;;;;;;;5.03;1.58;;;;;;;;;;5050584;28;20037;-37
2022/04/26 08:31:47;;;;;;;6.38;1.30;;;;;;;;;;5051761;28;20029;-36
2022/04/26 08:34:13;;;;;;;3.20;1.70;;;;;;;;;;5051751;28;20028;-36
2022/04/26 08:36:39;;;;;;;2.40;1.60;;;;;;;;;;5050481;28;20104;-37
2022/04/26 08:39:05;;;;;;;1.98;1.27;;;;;;;;;;5051079;28;20099;-37
2022/04/26 08:41:30;;;;;;;5.38;1.73;;;;;;;;;;5051585;28;20021;-36
2022/04/26 08:43:57;;;;;;;1.23;1.10;;;;;;;;;;5051549;28;20029;-36
2022/04/26 08:50:59;;;;;;;1.83;1.27;;;;;;;;;;5051398;28;20028;-36
2022/04/26 08:52:03;;;;;;;5.28;1.50;;;;;;;;;;5050160;28;20106;-36
2022/04/26 08:54:29;;;;;;;2.05;1.50;;;;;;;;;;5051463;28;20104;-37
2022/04/26 08:57:01;;;;;;;2.85;1.60;;;;;;;;;;5051635;28;20486;-37
2022/04/26 08:59:27;;;;;;;1.77;1.30;;;;;;;;;;5051439;28;20458;-37
2022/04/26 09:02:15;;;;;;;4.32;1.52;;;;;;;;;;5051458;28;20415;-37
2022/04/26 09:04:41;;;;;;;1.88;1.52;;;;;;;;;;5053466;28;20051;-37
2022/04/26 09:07:12;;;;;;;4.38;1.27;;;;;;;;;;5049829;28;20032;-37
2022/04/26 09:09:39;;;;;;;2.70;1.50;;;;;;;;;;5051547;28;20037;-37
2022/04/26 09:12:09;;;;;;;3.28;1.70;;;;;;;;;;5051163;28;20484;-36
2022/04/26 09:14:36;;;;;;;4.75;1.70;;;;;;;;;;5051464;28;20037;-37
2022/04/26 09:17:05;;;;;;;4.45;1.67;;;;;;;;;;5051181;28;20037;-36
2022/04/26 09:19:42;;;;;;;1.63;1.25;;;;;;;;;;5051163;28;20507;-37
2022/04/26 09:22:14;;;;;;;1.80;1.50;;;;;;;;;;5051147;28;20037;-37
2022/04/26 09:24:54;;;;;;;2.78;1.48;;;;;;;;;;5051108;28;20029;-37
2022/04/26 09:27:20;;;;;;;1.70;1.23;;;;;;;;;;5051279;28;20388;-36
2022/04/26 09:29:49;;;;;;;2.13;1.50;;;;;;;;;;5051042;28;20032;-37
2022/04/26 09:32:15;;;;;;;1.65;1.00;;;;;;;;;;5051034;28;20029;-36
2022/04/26 09:34:40;;;;;;;2.20;2.00;;;;;;;;;;5051319;28;20024;-37
2022/04/26 09:37:05;;;;;;;2.95;1.83;;;;;;;;;;5050957;28;20032;-37
2022/04/26 09:39:31;;;;;;;2.00;1.73;;;;;;;;;;5051253;28;20056;-37
2022/04/26 09:41:57;;;;;;;1.30;1.20;;;;;;;;;;5050961;28;20025;-37
2022/04/26 09:44:32;;;;;;;1.55;1.38;;;;;;;;;;5050895;28;20021;-37
2022/04/26 09:46:57;;;;;;;2.25;1.50;;;;;;;;;;5050782;28;20369;-37
2022/04/26 09:49:23;;;;;;;1.58;1.42;;;;;;;;;;5050919;28;20021;-37
2022/04/26 09:51:55;;;;;;;4.28;1.73;;;;;;;;;;5052082;28;20029;-37
2022/04/26 09:54:21;;;;;;;1.80;1.67;;;;;;;;;;5055000;28;20033;-36
2022/04/26 09:56:47;;;;;;;4.05;2.00;;;;;;;;;;5055007;28;20080;-37
2022/04/26 09:59:15;;;;;;;1.83;1.40;;;;;;;;;;5054607;28;20044;-37
2022/04/26 10:01:42;;;;;;;2.38;1.92;;;;;;;;;;5054710;28;20028;-37
2022/04/26 10:04:08;;;;;;;1.50;1.33;;;;;;;;;;5054569;28;20021;-37
2022/04/26 10:06:33;;;;;;;3.72;1.67;;;;;;;;;;5054547;28;20021;-37
2022/04/26 10:08:59;;;;;;;2.00;1.55;;;;;;;;;;5054545;28;20043;-37
2022/04/26 10:11:25;;;;;;;2.25;1.88;;;;;;;;;;5054139;28;20020;-37
2022/04/26 10:13:50;;;;;;;3.50;2.10;;;;;;;;;;5054569;28;20044;-36
2022/04/26 10:16:21;;;;;;;2.42;1.52;;;;;;;;;;5054509;28;20029;-37
2022/04/26 10:18:49;;;;;;;1.33;1.20;;;;;;;;;;5054348;28;20087;-36
2022/04/26 10:21:21;;;;;;;4.68;1.33;;;;;;;;;;5054263;28;20100;-37
2022/04/26 10:24:02;;;;;;;1.23;1.13;;;;;;;;;;5054429;28;20039;-37
2022/04/26 10:26:28;;;;;;;1.60;1.40;;;;;;;;;;5053945;28;20025;-37
2022/04/26 10:29:02;;;;;;;1.92;1.23;;;;;;;;;;5052796;28;20045;-37
2022/04/26 10:31:35;;;;;;;2.75;2.03;;;;;;;;;;5054347;28;20021;-37
2022/04/26 10:34:01;;;;;;;4.32;1.67;;;;;;;;;;5054053;28;20039;-37
2022/04/26 10:36:27;;;;;;;2.97;1.90;;;;;;;;;;5053932;28;20055;-36
2022/04/26 10:39:04;;;;;;;2.60;1.80;;;;;;;;;;5054211;28;20045;-37
2022/04/26 10:41:37;;;;;;;2.28;1.50;;;;;;;;;;5053894;28;20033;-37
2022/04/26 10:44:24;;;;;;;2.10;1.50;;;;;;;;;;5054075;28;20120;-37
2022/04/26 10:46:53;;;;;;;1.92;1.45;;;;;;;;;;5053821;28;20021;-37
2022/04/26 10:49:24;;;;;;;2.33;1.90;;;;;;;;;;5053729;28;20092;-37
2022/04/26 10:51:56;;;;;;;3.53;2.08;;;;;;;;;;5053767;28;20056;-37
2022/04/26 10:54:40;;;;;;;2.00;1.63;;;;;;;;;;5053598;28;20041;-37
2022/04/26 10:57:05;;;;;;;2.00;1.58;;;;;;;;;;5053550;28;20021;-36
2022/04/26 10:59:31;;;;;;;3.95;1.80;;;;;;;;;;5053829;28;20017;-37
2022/04/26 11:01:56;;;;;;;3.58;2.40;;;;;;;;;;5053217;28;20025;-37
2022/04/26 11:04:22;;;;;;;4.65;1.80;;;;;;;;;;5053483;28;20013;-37
2022/04/26 11:06:48;;;;;;;3.80;1.73;;;;;;;;;;5052116;28;20415;-37
2022/04/26 11:09:15;;;;;;;3.28;2.17;;;;;;;;;;5053504;28;20384;-37
2022/04/26 11:11:50;;;;;;;2.85;1.88;;;;;;;;;;5053275;28;20041;-37
2022/04/26 11:14:17;;;;;;;1.80;1.58;;;;;;;;;;5053214;28;20132;-37
2022/04/26 11:17:15;;;;;;;4.70;1.65;;;;;;;;;;5053425;28;20079;-37
2022/04/26 11:19:47;;;;;;;2.15;1.40;;;;;;;;;;5062884;28;20060;-37
2022/04/26 11:22:13;;;;;;;1.90;1.50;;;;;;;;;;5053384;28;20029;-37
2022/04/26 11:30:08;;;;;;;2.28;1.00;;;;;;;;;;5053247;28;20044;-37
2022/04/26 11:32:35;;;;;;;6.47;1.27;;;;;;;;;;5052812;28;20024;-37
2022/04/26 11:35:01;;;;;;;3.25;1.17;;;;;;;;;;5052963;28;20617;-36
2022/04/26 11:37:26;;;;;;;1.60;1.10;;;;;;;;;;5052724;28;20100;-36
2022/04/26 11:39:52;;;;;;;1.00;0.90;;;;;;;;;;5052807;28;20031;-36
2022/04/26 11:42:19;;;;;;;1.80;1.25;;;;;;;;;;5052999;28;20463;-37
2022/04/26 11:45:03;;;;;;;1.25;0.70;;;;;;;;;;5052606;28;20025;-37
2022/04/26 11:47:42;;;;;;;0.95;0.95;;;;;;;;;;5052727;28;20382;-37
2022/04/26 11:50:11;;;;;;;3.45;0.75;;;;;;;;;;5052184;28;20167;-37
2022/04/26 11:52:37;;;;;;;1.17;1.08;;;;;;;;;;5052931;28;20021;-37
2022/04/26 11:55:02;;;;;;;1.52;1.38;;;;;;;;;;5051194;28;20548;-36
2022/04/26 11:57:28;;;;;;;1.00;0.90;;;;;;;;;;5052310;28;20020;-37
2022/04/26 11:59:54;;;;;;;1.20;1.05;;;;;;;;;;5052739;28;20033;-37
2022/04/26 12:02:19;;;;;;;2.30;1.25;;;;;;;;;;5051193;28;20376;-37
2022/04/26 12:04:45;;;;;;;1.52;1.38;;;;;;;;;;5051039;28;20052;-37
2022/04/26 12:07:11;;;;;;;4.63;1.42;;;;;;;;;;5052372;28;20106;-37
2022/04/26 12:09:36;;;;;;;5.88;1.75;;;;;;;;;;5052367;28;20025;-37
2022/04/26 12:12:03;;;;;;;2.85;1.48;;;;;;;;;;5050944;28;20396;-36
2022/04/26 12:14:28;;;;;;;2.38;1.30;;;;;;;;;;5051496;28;20064;-37
2022/04/26 12:16:56;;;;;;;9.77;1.92;;;;;;;;;;5052131;28;20384;-37
2022/04/26 12:19:35;;;;;;;3.92;1.73;;;;;;;;;;5050849;28;20049;-37
2022/04/26 12:22:02;;;;;;;2.28;1.88;;;;;;;;;;5052038;28;20475;-37
2022/04/26 12:24:29;;;;;;;1.42;1.33;;;;;;;;;;5051760;28;20028;-37
2022/04/26 12:26:54;;;;;;;7.60;2.95;;;;;;;;;;5052061;28;20021;-37
2022/04/26 12:29:21;;;;;;;3.53;1.50;;;;;;;;;;5051885;28;20379;-37
2022/04/26 12:31:48;;;;;;;5.05;2.00;;;;;;;;;;5051986;28;20392;-36
2022/04/26 12:34:17;;;;;;;1.90;1.60;;;;;;;;;;5051831;28;20044;-37
2022/04/26 12:36:52;;;;;;;2.67;1.40;;;;;;;;;;5051638;28;20476;-37
2022/04/26 12:39:21;;;;;;;3.65;1.27;;;;;;;;;;5051624;28;20033;-42
2022/04/26 12:41:48;;;;;;;3.83;1.58;;;;;;;;;;5051643;28;20021;-37
2022/04/26 12:44:13;;;;;;;1.42;1.33;;;;;;;;;;5051593;28;20029;-36
2022/04/26 12:52:38;;;;;;;1.50;1.40;;;;;;;;;;5051918;28;20041;-37
2022/04/26 12:55:06;;;;;;;1.60;1.50;;;;;;;;;;5051439;28;20533;-36
2022/04/26 12:57:44;;;;;;;1.33;1.23;;;;;;;;;;5051346;28;20041;-37
2022/04/26 13:00:10;;;;;;;1.73;1.50;;;;;;;;;;5051423;28;20025;-37
2022/04/26 13:02:36;;;;;;;2.05;1.15;;;;;;;;;;5051366;28;20033;-37
2022/04/26 13:05:01;;;;;;;1.42;1.30;;;;;;;;;;5051390;28;20067;-37
2022/04/26 13:07:27;;;;;;;2.53;1.83;;;;;;;;;;5051086;28;20033;-37
2022/04/26 13:09:53;;;;;;;5.65;1.58;;;;;;;;;;5051325;28;20029;-37
2022/04/26 13:12:18;;;;;;;4.30;1.52;;;;;;;;;;5051098;28;20052;-37
2022/04/26 13:14:44;;;;;;;1.73;1.60;;;;;;;;;;5051330;28;20021;-37
2022/04/26 13:17:09;;;;;;;4.60;1.77;;;;;;;;;;5051178;28;20028;-37
2022/04/26 13:19:35;;;;;;;4.90;1.50;;;;;;;;;;5051160;28;20040;-37
2022/04/26 13:22:00;;;;;;;3.88;1.00;;;;;;;;;;5051176;28;20460;-37
2022/04/26 13:24:28;;;;;;;3.10;1.38;;;;;;;;;;5049799;28;20064;-37
2022/04/26 13:26:54;;;;;;;2.03;1.83;;;;;;;;;;5054072;28;20013;-37
2022/04/26 13:29:19;;;;;;;2.60;1.65;;;;;;;;;;5055210;28;20033;-37
2022/04/26 13:31:45;;;;;;;1.88;1.60;;;;;;;;;;5055222;28;20025;-37
2022/04/26 13:34:12;;;;;;;3.60;1.67;;;;;;;;;;5055531;28;20100;-37
2022/04/26 13:36:37;;;;;;;3.17;1.48;;;;;;;;;;5053702;28;20025;-37
2022/04/26 13:39:03;;;;;;;4.72;1.85;;;;;;;;;;5055110;28;20037;-37
2022/04/26 13:41:31;;;;;;;1.45;1.30;;;;;;;;;;5053807;28;20057;-37
2022/04/26 13:43:56;;;;;;;3.38;1.83;;;;;;;;;;5054901;28;20113;-37
2022/04/26 13:46:23;;;;;;;3.10;2.00;;;;;;;;;;5054938;28;20096;-37
2022/04/26 13:48:50;;;;;;;2.83;2.10;;;;;;;;;;5053541;28;20094;-37
2022/04/26 13:51:15;;;;;;;3.65;2.40;;;;;;;;;;5055111;28;20028;-37
2022/04/26 13:53:41;;;;;;;3.95;2.20;;;;;;;;;;5054851;28;20086;-36
2022/04/26 13:56:09;;;;;;;3.28;1.98;;;;;;;;;;5054717;28;20017;-37
2022/04/26 13:58:35;;;;;;;1.75;1.60;;;;;;;;;;5054618;28;20056;-37
2022/04/26 14:01:00;;;;;;;1.95;1.58;;;;;;;;;;5054763;28;20063;-37
2022/04/26 14:03:27;;;;;;;3.65;2.03;;;;;;;;;;5054604;28;20036;-37
2022/04/26 14:05:55;;;;;;;4.07;2.53;;;;;;;;;;5054560;28;20593;-37
2022/04/26 14:08:21;;;;;;;2.88;1.92;;;;;;;;;;5054723;28;20040;-37
2022/04/26 14:10:46;;;;;;;7.82;2.70;;;;;;;;;;5054522;28;20028;-37
2022/04/26 14:13:12;;;;;;;2.75;2.28;;;;;;;;;;5054352;28;20499;-36
2022/04/26 14:23:49;;;;;;;6.70;3.03;;;;;;;;;;5054358;28;20487;-37
2022/04/26 14:26:15;;;;;;;14.48;2.78;;;;;;;;;;5054120;28;20056;-37
2022/04/26 14:28:40;;;;;;;4.82;2.40;;;;;;;;;;5052808;28;20303;-36
2022/04/26 14:31:06;;;;;;;4.68;2.45;;;;;;;;;;5054255;28;20108;-36
2022/04/26 14:33:33;;;;;;;3.53;2.30;;;;;;;;;;5054315;28;20062;-37
2022/04/26 14:35:59;;;;;;;6.68;2.80;;;;;;;;;;5053962;28;20017;-37
2022/04/26 14:38:24;;;;;;;4.80;1.98;;;;;;;;;;5052969;28;20025;-37
2022/04/26 14:40:50;;;;;;;3.88;2.45;;;;;;;;;;5054092;28;20024;-37
2022/04/26 14:43:16;;;;;;;3.72;1.92;;;;;;;;;;5053841;28;20059;-37
2022/04/26 14:45:50;;;;;;;8.95;2.22;;;;;;;;;;5053863;28;20032;-36
2022/04/26 14:48:16;;;;;;;5.72;2.08;;;;;;;;;;5053984;28;20068;-36
2022/04/26 14:50:42;;;;;;;2.53;2.05;;;;;;;;;;5053840;28;20056;-36
2022/04/26 14:53:07;;;;;;;1.90;1.70;;;;;;;;;;5053656;28;20060;-37
2022/04/26 14:55:33;;;;;;;2.13;1.60;;;;;;;;;;5053841;28;20500;-37
2022/04/26 14:57:58;;;;;;;6.85;2.47;;;;;;;;;;5053541;28;20536;-37
2022/04/26 15:00:24;;;;;;;5.07;1.92;;;;;;;;;;5053578;28;20017;-37
2022/04/26 15:02:50;;;;;;;7.53;2.22;;;;;;;;;;5053486;28;20052;-37
2022/04/26 15:05:16;;;;;;;8.90;1.83;;;;;;;;;;5053446;28;20060;-37
2022/04/26 15:10:27;;;;;;;1.92;1.75;;;;;;;;;;5053304;28;20029;-37
2022/04/26 15:18:23;;;;;;;3.00;2.13;;;;;;;;;;5053177;28;20028;-37
2022/04/26 15:20:51;;;;;;;6.15;2.28;;;;;;;;;;5053477;28;20013;-37
2022/04/26 15:23:18;;;;;;;5.68;2.42;;;;;;;;;;5052777;28;20033;-37
2022/04/26 15:26:03;;;;;;;6.50;2.20;;;;;;;;;;5053342;28;20013;-37
2022/04/26 15:28:30;;;;;;;5.10;2.70;;;;;;;;;;5051785;28;20073;-37
2022/04/26 15:30:55;;;;;;;3.83;1.67;;;;;;;;;;5053314;28;20052;-37
2022/04/26 15:33:22;;;;;;;6.28;2.55;;;;;;;;;;5053283;28;20542;-37
2022/04/26 15:35:48;;;;;;;3.90;2.47;;;;;;;;;;5052860;28;20096;-37
2022/04/26 15:38:13;;;;;;;4.03;2.28;;;;;;;;;;5053145;28;20116;-37
2022/04/26 15:40:40;;;;;;;3.72;1.60;;;;;;;;;;5052828;28;20464;-37
2022/04/26 15:43:06;;;;;;;4.07;2.30;;;;;;;;;;5052831;28;20025;-37
2022/04/26 15:45:31;;;;;;;3.50;2.22;;;;;;;;;;5052841;28;20436;-37
2022/04/26 15:47:57;;;;;;;7.35;2.70;;;;;;;;;;5052536;28;20120;-37
2022/04/26 15:50:23;;;;;;;6.90;2.63;;;;;;;;;;5052528;28;20029;-37
2022/04/26 15:52:50;;;;;;;3.50;2.28;;;;;;;;;;5052637;28;20028;-37
2022/04/26 15:55:16;;;;;;;3.28;2.00;;;;;;;;;;5052399;28;20468;-37
2022/04/26 15:57:44;;;;;;;5.20;2.10;;;;;;;;;;5052464;28;20094;-37
2022/04/26 16:00:10;;;;;;;6.18;2.35;;;;;;;;;;5052658;28;20048;-37
2022/04/26 16:02:36;;;;;;;3.80;1.88;;;;;;;;;;5052372;28;20494;-37
2022/04/26 16:05:02;;;;;;;8.80;2.88;;;;;;;;;;5052318;28;20025;-37
2022/04/26 16:07:27;;;;;;;5.47;2.35;;;;;;;;;;5051998;28;20032;-37
2022/04/26 16:20:48;;;;;;;3.45;2.15;;;;;;;;;;5050793;28;20479;-37
2022/04/26 16:23:13;;;;;;;6.55;2.90;;;;;;;;;;5052008;28;20021;-37
2022/04/26 16:25:39;;;;;;;5.30;2.85;;;;;;;;;;5051932;28;20017;-37
2022/04/26 16:28:05;;;;;;;6.13;2.80;;;;;;;;;;5050615;28;20124;-37
2022/04/26 16:30:31;;;;;;;7.80;2.40;;;;;;;;;;5050618;28;20033;-37
2022/04/26 16:32:57;;;;;;;5.35;2.58;;;;;;;;;;5051954;28;20096;-37
2022/04/26 16:35:24;;;;;;;4.85;2.60;;;;;;;;;;5051918;28;20418;-37
2022/04/26 16:37:50;;;;;;;6.32;3.05;;;;;;;;;;5051809;28;20035;-37
2022/04/26 16:40:15;;;;;;;5.60;2.47;;;;;;;;;;5052033;28;20108;-37
2022/04/26 16:42:40;;;;;;;11.07;4.30;;;;;;;;;;5051680;28;20487;-37
2022/04/26 16:45:07;;;;;;;5.72;2.53;;;;;;;;;;5051713;28;20467;-37
2022/04/26 16:47:32;;;;;;;4.57;2.13;;;;;;;;;;5051446;28;20049;-37
2022/04/26 16:49:58;;;;;;;2.53;2.08;;;;;;;;;;5051552;28;20072;-37
2022/04/26 16:52:23;;;;;;;3.40;1.83;;;;;;;;;;5051452;28;20020;-37
2022/04/26 16:54:52;;;;;;;8.85;2.92;;;;;;;;;;5051802;28;20029;-37
2022/04/26 16:57:17;;;;;;;7.30;2.45;;;;;;;;;;5051273;28;20035;-37
2022/04/26 16:59:43;;;;;;;7.82;2.13;;;;;;;;;;5051628;28;20041;-36
2022/04/26 17:02:09;;;;;;;8.15;3.08;;;;;;;;;;5051612;28;20021;-37
2022/04/26 17:04:34;;;;;;;6.93;2.38;;;;;;;;;;5051586;28;20545;-37
2022/04/26 17:07:00;;;;;;;9.75;4.28;;;;;;;;;;5051372;28;20025;-37
2022/04/26 17:09:27;;;;;;;4.15;2.65;;;;;;;;;;5051103;28;20194;-37
2022/04/26 17:11:52;;;;;;;10.82;2.78;;;;;;;;;;5051154;28;20136;-37
2022/04/26 17:14:19;;;;;;;7.80;2.70;;;;;;;;;;5051305;28;20060;-37
2022/04/26 17:16:46;;;;;;;3.90;2.70;;;;;;;;;;5051195;28;20032;-37
2022/04/26 17:19:14;;;;;;;5.45;2.45;;;;;;;;;;5051493;28;20128;-37
2022/04/26 17:21:40;;;;;;;4.32;2.10;;;;;;;;;;5051409;28;20116;-37
2022/04/26 17:25:13;;;;;;;6.43;2.08;;;;;;;;;;5051481;28;20482;-37
2022/04/26 17:26:51;;;;;;;9.88;2.80;;;;;;;;;;5051245;28;20024;-37
2022/04/26 17:29:19;;;;;;;6.38;2.58;;;;;;;;;;5051096;28;20498;-37
2022/04/26 17:31:45;;;;;;;5.80;2.55;;;;;;;;;;5051000;28;20032;-37
2022/04/26 17:34:11;;;;;;;8.15;2.97;;;;;;;;;;5051110;28;20144;-37
2022/04/26 17:36:41;;;;;;;8.10;2.70;;;;;;;;;;5051191;28;20112;-37
2022/04/26 17:39:06;;;;;;;4.88;2.05;;;;;;;;;;5051017;28;20033;-37
2022/04/26 17:41:33;;;;;;;3.10;2.55;;;;;;;;;;5050999;28;20031;-37
2022/04/26 17:44:03;;;;;;;2.90;1.67;;;;;;;;;;5051235;28;20029;-37
2022/04/26 17:46:29;;;;;;;5.53;2.53;;;;;;;;;;5050845;28;20156;-37
2022/04/26 17:48:54;;;;;;;5.38;2.67;;;;;;;;;;5050915;28;20045;-37
2022/04/26 17:51:20;;;;;;;9.07;3.35;;;;;;;;;;5049670;28;20017;-37
2022/04/26 17:56:30;;;;;;;4.20;1.95;;;;;;;;;;5050763;28;20392;-37
2022/04/26 17:58:55;;;;;;;8.57;3.20;;;;;;;;;;5050858;28;20017;-37
2022/04/26 18:01:21;;;;;;;3.00;2.25;;;;;;;;;;5049744;28;20214;-37
2022/04/26 18:03:48;;;;;;;5.35;2.35;;;;;;;;;;5049541;28;20029;-37
2022/04/26 18:06:14;;;;;;;5.15;3.13;;;;;;;;;;5050665;28;20033;-37
2022/04/26 18:08:40;;;;;;;4.35;2.60;;;;;;;;;;5050674;28;20033;-37
2022/04/26 18:11:09;;;;;;;3.38;2.75;;;;;;;;;;5050767;28;20079;-37
2022/04/26 18:13:36;;;;;;;3.80;2.47;;;;;;;;;;5052742;28;20545;-37
2022/04/26 18:16:02;;;;;;;5.38;2.58;;;;;;;;;;5054392;28;20032;-37
2022/04/26 18:18:28;;;;;;;3.78;2.45;;;;;;;;;;5054342;28;20642;-37
2022/04/26 18:20:54;;;;;;;2.83;2.38;;;;;;;;;;5054669;28;20033;-37
2022/04/26 18:23:20;;;;;;;3.67;2.63;;;;;;;;;;5054531;28;20521;-37
2022/04/26 18:28:31;;;;;;;4.50;1.90;;;;;;;;;;5054146;28;20045;-38
2022/04/26 18:30:57;;;;;;;5.38;2.60;;;;;;;;;;5054162;28;20021;-37
2022/04/26 18:33:23;;;;;;;3.25;2.45;;;;;;;;;;5052745;28;20041;-37
2022/04/26 18:35:48;;;;;;;6.25;2.50;;;;;;;;;;5053942;28;20067;-37
2022/04/26 18:38:14;;;;;;;12.80;2.83;;;;;;;;;;5052775;28;20542;-37
2022/04/26 18:40:39;;;;;;;5.82;2.50;;;;;;;;;;5053969;28;20104;-37
2022/04/26 18:43:05;;;;;;;4.15;2.30;;;;;;;;;;5053816;28;20044;-36
2022/04/26 18:45:31;;;;;;;5.63;2.35;;;;;;;;;;5053792;28;20036;-37
2022/04/26 18:47:57;;;;;;;7.30;2.28;;;;;;;;;;5052793;28;20036;-37
2022/04/26 18:50:23;;;;;;;3.65;2.40;;;;;;;;;;5054021;28;20021;-37
2022/04/26 18:52:49;;;;;;;5.18;2.70;;;;;;;;;;5053806;28;20392;-37
2022/04/26 18:55:15;;;;;;;7.20;2.47;;;;;;;;;;5053630;28;20017;-37
2022/04/26 18:57:41;;;;;;;6.32;3.00;;;;;;;;;;5053784;28;20044;-39
2022/04/26 19:00:07;;;;;;;10.52;2.67;;;;;;;;;;5053661;28;20017;-40
2022/04/26 19:02:33;;;;;;;7.10;2.85;;;;;;;;;;5053515;28;20037;-37
2022/04/26 19:04:58;;;;;;;9.07;3.83;;;;;;;;;;5035740;28;20024;-38
2022/04/26 19:07:24;;;;;;;11.00;4.30;;;;;;;;;;5053509;28;20387;-37
2022/04/26 19:12:36;;;;;;;9.05;3.33;;;;;;;;;;5053051;28;20057;-37
2022/04/26 19:15:05;;;;;;;7.57;3.13;;;;;;;;;;5052074;28;20082;-36
2022/04/26 19:17:30;;;;;;;4.65;2.97;;;;;;;;;;5053401;28;20044;-37